Airfield :
LOGIN :

Register | Disclaimer

   EN    FR    IT 

 










Legend :    VFR   Marginal VFR   IFR   Intensive IFR   Very Intensive IFR
Visi :
Ceiling :
>= 8 km
>= 3000ft
5 to 8 km
1000 to 3000 ft
1500m to 5 km
500 to 1000 ft
800 to 1500m
200 to 500 ft
< 800m
< 200 ft
Symbols :   Thunderstorms  Fog  Heavy snow  Heavy precipitations  Wind > 20 kt
SIGMETs :     Misc.  Thunderstorms  Icing  Turbulence  Mountain Waves  Volcanic Ashes







- Airport Elevation : 290 ft
- IATA code : LAI
- Download approach charts


LFRO - Lannion

CURRENT METAR :
  • 121530Z AUTO 21007KT CAVOK 07/04 Q1012 NOSIG

EXPIRED METARs :
  • 121500Z AUTO 21008KT CAVOK 08/04 Q1012 NOSIG
  • 121430Z AUTO 22010KT CAVOK 08/04 Q1012 NOSIG
  • 121400Z AUTO 22007KT 9999 BKN034 BKN041 BKN052 08/04 Q1012 NOSIG
  • 121330Z AUTO 22008KT 9999 BKN035 BKN041 BKN047 08/04 Q1012 NOSIG
  • 121300Z AUTO 23008KT 190V250 9999 FEW030 BKN160 BKN180 08/04 Q1012 NOSIG

TAF TAF LFRO
Valid from the 12 at 12:00 until the 13 at 12:00 UTC


121100Z 1212/1312 20008KT 9999 SCT040 BKN200
BECMG 1218/1221 20015KT OVC010
TEMPO 1221/1301 21018G28KT 4000 -RA OVC005
BECMG 1301/1303 28008KT BKN020
BECMG 1309/1312 24015G25KT 4000 RA OVC005
No reported NOTAMs for that airfield.
2 SIGMETs reported for the Brest FIR (LFRR) :
 
Severe turbulence
LFRR SIGMET 6 VALID 121600/122000 LFPW
LFRR BREST FIR/UIR SEV TURB FCST WI N4330 W00145 - N4415 W00430 - N4730 W00430 - N4730 W00215 - N4330 W00145 FL250/400 MOV SE 30KT WKN=
Severe turbulence
LFRR SIGMET 5 VALID 121300/121600 LFPW
LFRR BREST FIR/UIR SEV TURB FCST WI N4900 W00730 - N4930 W00430 - N4515 W00300 - N4515 W00545 - N4900 W00730 FL220/420 MOV S 60KT NC=



MET'MAP, your aeronautical weather chart ! - Copyright ORBIFLY December 2007 - Disclaimer

ORBIFLY MET'MAP TEAM :

Programming & Development : Alexandra Zaïnal
Concept & Development : Baudouin d'Aumeries
Co-Development & Prog : Marc-Olivier Méhu
Technical & hardware support : Manuel Goepfert

Contact : metmap@orbifly.com




SOURCES & CREDITS :

   NOAA